createdAt,value
2018-07-25T00:02:24.548Z,94.90
2018-07-25T00:07:19.117Z,95.10
2018-07-25T00:12:13.698Z,95.70
2018-07-25T00:17:08.253Z,95.80
2018-07-25T00:22:02.807Z,96.10
2018-07-25T00:26:57.382Z,95.80
2018-07-25T00:31:51.958Z,95.80
2018-07-25T00:36:46.476Z,96.30
2018-07-25T00:41:41.006Z,96.40
2018-07-25T00:46:35.518Z,96.50
2018-07-25T00:51:30.525Z,96.50
2018-07-25T00:56:25.125Z,96.80
2018-07-25T01:01:19.751Z,97.00
2018-07-25T01:06:14.273Z,97.00
2018-07-25T01:11:08.860Z,97.40
2018-07-25T01:16:04.416Z,97.40
2018-07-25T01:20:59.008Z,97.10
2018-07-25T01:30:47.818Z,97.30
2018-07-25T01:40:36.607Z,98.10
2018-07-25T01:45:31.117Z,98.30
2018-07-25T01:50:25.685Z,98.20
2018-07-25T01:55:20.211Z,98.00
2018-07-25T02:00:14.781Z,97.70
2018-07-25T02:05:09.324Z,97.40
2018-07-25T02:10:03.929Z,97.50
2018-07-25T02:14:58.538Z,98.10
2018-07-25T02:19:53.142Z,98.30
2018-07-25T02:24:47.689Z,98.80
2018-07-25T02:29:42.236Z,99.00
2018-07-25T02:34:36.787Z,99.10
2018-07-25T02:44:25.585Z,99.30
2018-07-25T02:49:20.202Z,99.50
2018-07-25T02:54:14.774Z,99.20
2018-07-25T02:59:09.339Z,99.50
2018-07-25T03:04:03.917Z,99.70
2018-07-25T03:08:58.536Z,99.80
2018-07-25T03:13:53.042Z,99.90
2018-07-25T03:18:47.591Z,99.90
2018-07-25T03:23:42.137Z,99.90
2018-07-25T03:28:36.743Z,99.90
2018-07-25T03:33:31.321Z,99.90
2018-07-25T03:38:26.489Z,99.90
2018-07-25T03:43:21.130Z,99.90
2018-07-25T03:48:15.714Z,99.70
2018-07-25T03:53:10.311Z,99.90
2018-07-25T03:58:04.965Z,99.90
2018-07-25T04:02:59.546Z,99.90
2018-07-25T04:07:54.293Z,99.90
2018-07-25T04:12:49.255Z,99.90
2018-07-25T04:17:45.915Z,99.90
2018-07-25T04:22:40.544Z,99.90
2018-07-25T04:27:35.666Z,99.80
2018-07-25T04:32:30.244Z,98.00
2018-07-25T04:37:24.981Z,96.50
2018-07-25T04:42:20.213Z,95.50
2018-07-25T04:47:14.740Z,94.40
2018-07-25T04:52:09.334Z,92.90
2018-07-25T04:57:03.921Z,91.90
2018-07-25T05:01:58.513Z,90.80
2018-07-25T05:06:53.072Z,87.40
2018-07-25T05:11:47.590Z,84.90
2018-07-25T05:16:42.162Z,85.80
2018-07-25T05:21:36.743Z,85.00
2018-07-25T05:26:31.261Z,85.00
2018-07-25T05:31:25.686Z,83.40
2018-07-25T05:36:20.369Z,80.80
2018-07-25T05:41:14.785Z,82.50
2018-07-25T05:46:09.297Z,81.20
2018-07-25T05:51:03.785Z,79.20
2018-07-25T05:55:58.310Z,78.00
2018-07-25T06:00:52.763Z,77.70
2018-07-25T06:05:47.278Z,77.00
2018-07-25T06:15:35.829Z,72.10
2018-07-25T06:20:30.429Z,72.60
2018-07-25T06:25:36.494Z,70.10
2018-07-25T06:30:30.976Z,70.60
2018-07-25T06:35:25.925Z,70.50
2018-07-25T06:45:14.577Z,79.60
2018-07-25T06:50:12.145Z,80.80
2018-07-25T06:55:06.753Z,81.20
2018-07-25T07:00:01.312Z,82.80
2018-07-25T07:09:54.565Z,83.20
2018-07-25T07:14:49.085Z,81.40
2018-07-25T07:19:43.677Z,83.00
2018-07-25T07:24:38.504Z,83.50
2018-07-25T07:29:33.305Z,84.30
2018-07-25T07:34:33.843Z,85.90
2018-07-25T07:39:28.415Z,87.30
2018-07-25T07:44:39.925Z,89.40
2018-07-25T07:49:36.178Z,90.00
2018-07-25T07:54:31.641Z,88.70
2018-07-25T07:59:26.215Z,86.70
2018-07-25T08:04:20.800Z,85.80
2018-07-25T08:09:15.979Z,86.70
2018-07-25T08:14:17.427Z,86.80
2018-07-25T08:19:13.033Z,85.70
2018-07-25T08:24:07.541Z,83.70
2018-07-25T08:29:02.102Z,84.10
2018-07-25T08:33:56.685Z,84.30
2018-07-25T08:38:51.324Z,83.90
2018-07-25T08:43:45.818Z,83.00
2018-07-25T08:48:40.504Z,81.30
2018-07-25T08:53:35.417Z,79.50
2018-07-25T08:58:30.181Z,79.30
2018-07-25T09:03:33.702Z,79.40
2018-07-25T09:08:29.107Z,79.50
2018-07-25T09:13:23.808Z,77.70
2018-07-25T09:18:18.325Z,75.50
2018-07-25T09:23:12.775Z,77.50
2018-07-25T09:28:07.849Z,77.00
2018-07-25T09:33:03.417Z,76.50
2018-07-25T09:37:58.074Z,74.40
2018-07-25T09:42:53.961Z,71.70
2018-07-25T09:47:49.399Z,70.60
2018-07-25T09:52:47.223Z,69.20
2018-07-25T09:57:42.018Z,68.40
2018-07-25T10:02:36.697Z,68.00
2018-07-25T10:07:31.231Z,67.30
2018-07-25T10:17:21.734Z,67.90
2018-07-25T10:27:10.965Z,67.70
2018-07-25T10:32:05.425Z,67.40
2018-07-25T10:41:54.150Z,66.70
2018-07-25T10:46:48.751Z,65.60
2018-07-25T10:51:43.290Z,66.00
2018-07-25T10:56:38.030Z,67.30
2018-07-25T11:01:33.569Z,67.10
2018-07-25T11:06:28.289Z,65.90
2018-07-25T11:11:23.125Z,63.80
2018-07-25T11:16:18.090Z,64.50
2018-07-25T11:21:12.591Z,62.30
2018-07-25T11:26:07.438Z,58.50
2018-07-25T11:31:02.156Z,60.60
2018-07-25T11:35:57.184Z,57.60
2018-07-25T11:40:52.233Z,55.10
2018-07-25T11:45:50.440Z,54.90
2018-07-25T11:50:48.615Z,54.70
2018-07-25T11:55:46.818Z,53.60
2018-07-25T12:00:46.087Z,54.20
2018-07-25T12:05:49.499Z,53.70
2018-07-25T12:10:47.542Z,54.00
2018-07-25T12:15:42.191Z,54.10
2018-07-25T12:20:39.798Z,53.10
2018-07-25T12:25:34.507Z,54.50
2018-07-25T12:30:31.723Z,55.50
2018-07-25T12:35:26.625Z,56.10
2018-07-25T12:40:21.452Z,55.50
2018-07-25T12:45:19.815Z,55.50
2018-07-25T12:50:15.631Z,55.40
2018-07-25T12:55:11.250Z,55.00
2018-07-25T13:00:08.438Z,55.50
2018-07-25T13:05:03.266Z,56.00
2018-07-25T13:09:58.443Z,55.30
2018-07-25T13:14:53.574Z,54.80
2018-07-25T13:19:48.507Z,54.20
2018-07-25T13:24:44.793Z,54.60
2018-07-25T13:29:39.498Z,54.60
2018-07-25T13:34:34.189Z,53.70
2018-07-25T13:39:28.981Z,53.20
2018-07-25T13:44:24.063Z,52.60
2018-07-25T13:49:19.175Z,53.60
2018-07-25T13:54:27.271Z,52.40
2018-07-25T13:59:23.432Z,52.20
2018-07-25T14:04:19.631Z,52.00
2018-07-25T14:09:16.007Z,51.10
2018-07-25T14:14:11.352Z,51.00
2018-07-25T14:19:06.459Z,50.90
2018-07-25T14:24:01.581Z,51.60
2018-07-25T14:28:56.634Z,51.40
2018-07-25T14:33:51.241Z,51.20
2018-07-25T14:38:45.952Z,51.50
2018-07-25T14:43:40.692Z,53.50
2018-07-25T14:48:35.805Z,55.30
2018-07-25T14:53:30.927Z,56.20
2018-07-25T14:58:25.686Z,56.70
2018-07-25T15:03:20.313Z,56.90
2018-07-25T15:08:15.861Z,57.10
2018-07-25T15:13:11.095Z,55.30
2018-07-25T15:18:08.890Z,55.10
2018-07-25T15:23:03.552Z,55.00
2018-07-25T15:27:58.347Z,54.00
2018-07-25T15:32:53.077Z,53.60
2018-07-25T15:37:47.801Z,53.40
2018-07-25T15:42:42.630Z,52.70
2018-07-25T15:47:37.286Z,53.00
2018-07-25T15:52:31.911Z,52.70
2018-07-25T15:57:26.688Z,53.10
2018-07-25T16:02:21.282Z,52.20
2018-07-25T16:07:15.922Z,52.10
2018-07-25T16:12:11.041Z,53.60
2018-07-25T16:17:05.803Z,54.10
2018-07-25T16:22:01.058Z,55.20
2018-07-25T16:26:55.654Z,55.00
2018-07-25T16:31:50.269Z,54.80
2018-07-25T16:36:45.246Z,55.70
2018-07-25T16:41:40.277Z,55.10
2018-07-25T16:46:35.124Z,54.70
2018-07-25T16:51:29.710Z,55.50
2018-07-25T16:56:24.309Z,56.50
2018-07-25T17:01:18.960Z,57.00
2018-07-25T17:06:13.803Z,57.50
2018-07-25T17:11:08.671Z,58.20
2018-07-25T17:16:03.313Z,58.20
2018-07-25T17:20:57.878Z,58.40
2018-07-25T17:25:52.514Z,57.70
2018-07-25T17:30:47.526Z,57.40
2018-07-25T17:35:42.459Z,56.50
2018-07-25T17:50:25.885Z,57.50
2018-07-25T17:55:20.565Z,57.60
2018-07-25T18:00:15.156Z,57.90
2018-07-25T18:05:10.518Z,58.60
2018-07-25T18:10:05.626Z,59.30
2018-07-25T18:19:54.554Z,60.60
2018-07-25T18:24:49.294Z,61.10
2018-07-25T18:29:43.900Z,60.70
2018-07-25T18:34:38.509Z,60.10
2018-07-25T18:39:33.114Z,60.10
2018-07-25T18:44:27.715Z,60.20
2018-07-25T18:49:22.360Z,60.60
2018-07-25T18:54:16.948Z,60.50
2018-07-25T18:59:11.684Z,61.20
2018-07-25T19:04:06.494Z,61.20
2018-07-25T19:09:01.114Z,61.40
2018-07-25T19:14:00.975Z,61.30
2018-07-25T19:18:55.533Z,62.00
2018-07-25T19:23:50.224Z,62.50
2018-07-25T19:28:44.721Z,62.80
2018-07-25T19:33:39.260Z,62.40
2018-07-25T19:38:33.849Z,63.10
2018-07-25T19:43:28.488Z,63.80
2018-07-25T19:48:23.051Z,63.80
2018-07-25T19:53:17.651Z,65.90
2018-07-25T19:58:12.292Z,67.60
2018-07-25T20:03:07.150Z,68.60
2018-07-25T20:08:02.246Z,67.50
2018-07-25T20:12:57.038Z,68.70
2018-07-25T20:17:51.662Z,69.80
2018-07-25T20:22:46.302Z,70.80
2018-07-25T20:27:40.851Z,72.20
2018-07-25T20:32:35.485Z,73.30
2018-07-25T20:37:30.104Z,74.50
2018-07-25T20:42:25.122Z,76.30
2018-07-25T20:47:19.727Z,77.40
2018-07-25T20:52:14.438Z,80.10
2018-07-25T20:57:09.231Z,81.70
2018-07-25T21:02:03.837Z,83.50
2018-07-25T21:06:58.409Z,84.60
2018-07-25T21:11:53.155Z,85.50
2018-07-25T21:21:42.287Z,87.60
2018-07-25T21:26:36.872Z,88.20
2018-07-25T21:31:31.445Z,89.40
2018-07-25T21:36:26.187Z,89.40
2018-07-25T21:41:20.890Z,90.40
2018-07-25T21:46:15.450Z,91.10
2018-07-25T21:51:10.002Z,91.30
2018-07-25T22:01:00.715Z,91.20
2018-07-25T22:05:55.297Z,91.00
2018-07-25T22:10:49.868Z,91.20
2018-07-25T22:20:38.665Z,91.40
2018-07-25T22:30:27.541Z,90.80
2018-07-25T22:35:22.138Z,90.70
2018-07-25T22:40:16.747Z,90.90
2018-07-25T22:45:11.370Z,91.10
2018-07-25T22:50:05.987Z,90.90
2018-07-25T22:55:00.623Z,91.20
2018-07-25T22:59:55.222Z,91.40
2018-07-25T23:04:49.830Z,91.80
2018-07-25T23:09:44.470Z,92.50
2018-07-25T23:14:39.056Z,92.50
2018-07-25T23:19:33.575Z,92.60
2018-07-25T23:24:28.122Z,93.00
2018-07-25T23:29:22.715Z,93.40
2018-07-25T23:34:17.522Z,94.20
2018-07-25T23:39:12.701Z,94.20
2018-07-25T23:44:07.380Z,94.50
2018-07-25T23:49:01.946Z,94.60
2018-07-25T23:53:56.534Z,94.60
2018-07-25T23:58:51.096Z,94.60
